sensor_id;sensor_type;location;lat;lon;timestamp;P1;durP1;ratioP1;P2;durP2;ratioP2
76121;SDS011;70471;53.200;6.080;2024-03-02T00:05:11;0.30;;;0.30;;
76121;SDS011;70471;53.200;6.080;2024-03-02T00:10:04;0.32;;;0.30;;
76121;SDS011;70471;53.200;6.080;2024-03-02T00:15:00;0.28;;;0.15;;
76121;SDS011;70471;53.200;6.080;2024-03-02T00:19:54;0.57;;;0.35;;
76121;SDS011;70471;53.200;6.080;2024-03-02T00:24:46;0.75;;;0.60;;
76121;SDS011;70471;53.200;6.080;2024-03-02T00:29:37;0.38;;;0.38;;
76121;SDS011;70471;53.200;6.080;2024-03-02T00:34:29;0.40;;;0.22;;
76121;SDS011;70471;53.200;6.080;2024-03-02T00:44:13;0.40;;;0.40;;
76121;SDS011;70471;53.200;6.080;2024-03-02T00:49:11;0.68;;;0.30;;
76121;SDS011;70471;53.200;6.080;2024-03-02T00:54:08;0.65;;;0.45;;
76121;SDS011;70471;53.200;6.080;2024-03-02T00:59:03;0.52;;;0.38;;
76121;SDS011;70471;53.200;6.080;2024-03-02T01:03:54;0.70;;;0.30;;
76121;SDS011;70471;53.200;6.080;2024-03-02T01:08:46;0.60;;;0.43;;
76121;SDS011;70471;53.200;6.080;2024-03-02T01:13:41;0.47;;;0.47;;
76121;SDS011;70471;53.200;6.080;2024-03-02T01:23:25;0.50;;;0.40;;
76121;SDS011;70471;53.200;6.080;2024-03-02T01:28:16;0.50;;;0.30;;
76121;SDS011;70471;53.200;6.080;2024-03-02T01:33:08;1.20;;;0.40;;
76121;SDS011;70471;53.200;6.080;2024-03-02T01:38:02;0.60;;;0.50;;
76121;SDS011;70471;53.200;6.080;2024-03-02T01:42:53;1.05;;;0.52;;
76121;SDS011;70471;53.200;6.080;2024-03-02T01:47:45;0.70;;;0.40;;
76121;SDS011;70471;53.200;6.080;2024-03-02T01:52:37;1.00;;;0.50;;
76121;SDS011;70471;53.200;6.080;2024-03-02T01:57:30;0.55;;;0.40;;
76121;SDS011;70471;53.200;6.080;2024-03-02T02:02:22;0.88;;;0.30;;
76121;SDS011;70471;53.200;6.080;2024-03-02T02:07:13;0.60;;;0.35;;
76121;SDS011;70471;53.200;6.080;2024-03-02T02:12:05;0.30;;;0.30;;
76121;SDS011;70471;53.200;6.080;2024-03-02T02:16:59;1.20;;;0.40;;
76121;SDS011;70471;53.200;6.080;2024-03-02T02:21:52;0.98;;;0.57;;
76121;SDS011;70471;53.200;6.080;2024-03-02T02:26:43;0.50;;;0.38;;
76121;SDS011;70471;53.200;6.080;2024-03-02T02:31:38;0.52;;;0.30;;
76121;SDS011;70471;53.200;6.080;2024-03-02T02:36:29;0.90;;;0.40;;
76121;SDS011;70471;53.200;6.080;2024-03-02T02:41:23;0.50;;;0.30;;
76121;SDS011;70471;53.200;6.080;2024-03-02T02:46:14;0.60;;;0.60;;
76121;SDS011;70471;53.200;6.080;2024-03-02T02:55:57;0.55;;;0.20;;
76121;SDS011;70471;53.200;6.080;2024-03-02T03:05:41;1.05;;;0.43;;
76121;SDS011;70471;53.200;6.080;2024-03-02T03:15:24;0.30;;;0.30;;
76121;SDS011;70471;53.200;6.080;2024-03-02T03:25:08;0.70;;;0.40;;
76121;SDS011;70471;53.200;6.080;2024-03-02T03:29:59;0.70;;;0.50;;
76121;SDS011;70471;53.200;6.080;2024-03-02T03:34:51;0.30;;;0.30;;
76121;SDS011;70471;53.200;6.080;2024-03-02T03:44:35;0.35;;;0.20;;
76121;SDS011;70471;53.200;6.080;2024-03-02T03:49:27;0.88;;;0.43;;
76121;SDS011;70471;53.200;6.080;2024-03-02T03:59:11;0.40;;;0.40;;
76121;SDS011;70471;53.200;6.080;2024-03-02T04:04:03;0.45;;;0.35;;
76121;SDS011;70471;53.200;6.080;2024-03-02T04:08:54;0.38;;;0.30;;
76121;SDS011;70471;53.200;6.080;2024-03-02T04:13:46;0.85;;;0.30;;
76121;SDS011;70471;53.200;6.080;2024-03-02T04:18:39;0.57;;;0.30;;
76121;SDS011;70471;53.200;6.080;2024-03-02T04:23:30;0.73;;;0.30;;
76121;SDS011;70471;53.200;6.080;2024-03-02T04:33:13;0.30;;;0.30;;
76121;SDS011;70471;53.200;6.080;2024-03-02T04:38:06;0.98;;;0.40;;
76121;SDS011;70471;53.200;6.080;2024-03-02T04:42:57;0.63;;;0.40;;
76121;SDS011;70471;53.200;6.080;2024-03-02T04:52:40;1.23;;;0.80;;
76121;SDS011;70471;53.200;6.080;2024-03-02T04:57:33;0.38;;;0.38;;
76121;SDS011;70471;53.200;6.080;2024-03-02T05:02:24;0.43;;;0.30;;
76121;SDS011;70471;53.200;6.080;2024-03-02T05:07:16;0.47;;;0.40;;
76121;SDS011;70471;53.200;6.080;2024-03-02T05:12:07;0.38;;;0.20;;
76121;SDS011;70471;53.200;6.080;2024-03-02T05:17:20;0.65;;;0.30;;
76121;SDS011;70471;53.200;6.080;2024-03-02T05:22:12;0.93;;;0.30;;
76121;SDS011;70471;53.200;6.080;2024-03-02T05:31:56;0.20;;;0.20;;
76121;SDS011;70471;53.200;6.080;2024-03-02T05:36:49;0.20;;;0.20;;
76121;SDS011;70471;53.200;6.080;2024-03-02T05:41:40;0.30;;;0.30;;
76121;SDS011;70471;53.200;6.080;2024-03-02T05:46:32;0.10;;;0.10;;
76121;SDS011;70471;53.200;6.080;2024-03-02T05:56:16;0.75;;;0.15;;
76121;SDS011;70471;53.200;6.080;2024-03-02T06:01:07;0.10;;;0.10;;
76121;SDS011;70471;53.200;6.080;2024-03-02T06:10:50;0.15;;;0.15;;
76121;SDS011;70471;53.200;6.080;2024-03-02T06:20:34;0.20;;;0.10;;
76121;SDS011;70471;53.200;6.080;2024-03-02T06:25:27;0.20;;;0.10;;
76121;SDS011;70471;53.200;6.080;2024-03-02T06:35:11;0.77;;;0.25;;
76121;SDS011;70471;53.200;6.080;2024-03-02T06:40:02;0.20;;;0.20;;
76121;SDS011;70471;53.200;6.080;2024-03-02T06:44:54;0.10;;;0.03;;
76121;SDS011;70471;53.200;6.080;2024-03-02T06:49:46;0.10;;;0.10;;
76121;SDS011;70471;53.200;6.080;2024-03-02T06:54:39;0.00;;;0.00;;
76121;SDS011;70471;53.200;6.080;2024-03-02T06:59:30;0.40;;;0.20;;
76121;SDS011;70471;53.200;6.080;2024-03-02T07:04:23;0.10;;;0.10;;
76121;SDS011;70471;53.200;6.080;2024-03-02T07:09:15;0.30;;;0.17;;
76121;SDS011;70471;53.200;6.080;2024-03-02T07:14:07;0.15;;;0.10;;
76121;SDS011;70471;53.200;6.080;2024-03-02T07:18:59;0.08;;;0.08;;
76121;SDS011;70471;53.200;6.080;2024-03-02T07:23:51;0.10;;;0.10;;
76121;SDS011;70471;53.200;6.080;2024-03-02T07:28:42;0.10;;;0.08;;
76121;SDS011;70471;53.200;6.080;2024-03-02T07:33:36;0.10;;;0.10;;
76121;SDS011;70471;53.200;6.080;2024-03-02T07:38:27;4.88;;;0.35;;
76121;SDS011;70471;53.200;6.080;2024-03-02T07:43:19;0.20;;;0.10;;
76121;SDS011;70471;53.200;6.080;2024-03-02T07:48:11;0.70;;;0.17;;
76121;SDS011;70471;53.200;6.080;2024-03-02T07:53:04;0.60;;;0.15;;
76121;SDS011;70471;53.200;6.080;2024-03-02T07:57:55;0.57;;;0.20;;
76121;SDS011;70471;53.200;6.080;2024-03-02T08:02:47;3.83;;;0.20;;
76121;SDS011;70471;53.200;6.080;2024-03-02T08:07:40;0.10;;;0.10;;
76121;SDS011;70471;53.200;6.080;2024-03-02T08:12:33;0.75;;;0.08;;
76121;SDS011;70471;53.200;6.080;2024-03-02T08:17:25;0.05;;;0.00;;
76121;SDS011;70471;53.200;6.080;2024-03-02T08:22:16;0.22;;;0.13;;
76121;SDS011;70471;53.200;6.080;2024-03-02T08:27:08;0.10;;;0.05;;
76121;SDS011;70471;53.200;6.080;2024-03-02T08:32:01;0.00;;;0.00;;
76121;SDS011;70471;53.200;6.080;2024-03-02T08:36:53;0.52;;;0.10;;
76121;SDS011;70471;53.200;6.080;2024-03-02T08:41:45;1.25;;;0.20;;
76121;SDS011;70471;53.200;6.080;2024-03-02T08:46:37;0.25;;;0.10;;
76121;SDS011;70471;53.200;6.080;2024-03-02T08:51:30;0.10;;;0.10;;
76121;SDS011;70471;53.200;6.080;2024-03-02T08:56:21;0.20;;;0.10;;
76121;SDS011;70471;53.200;6.080;2024-03-02T09:01:13;0.10;;;0.10;;
76121;SDS011;70471;53.200;6.080;2024-03-02T09:06:05;0.50;;;0.10;;
76121;SDS011;70471;53.200;6.080;2024-03-02T09:10:58;0.65;;;0.20;;
76121;SDS011;70471;53.200;6.080;2024-03-02T09:15:50;0.30;;;0.20;;
76121;SDS011;70471;53.200;6.080;2024-03-02T09:20:42;0.45;;;0.30;;
76121;SDS011;70471;53.200;6.080;2024-03-02T09:25:33;0.77;;;0.38;;
76121;SDS011;70471;53.200;6.080;2024-03-02T09:30:27;0.20;;;0.20;;
76121;SDS011;70471;53.200;6.080;2024-03-02T09:35:19;1.13;;;0.20;;
76121;SDS011;70471;53.200;6.080;2024-03-02T09:40:11;0.25;;;0.10;;
76121;SDS011;70471;53.200;6.080;2024-03-02T09:45:03;0.73;;;0.22;;
76121;SDS011;70471;53.200;6.080;2024-03-02T09:49:56;0.28;;;0.20;;
76121;SDS011;70471;53.200;6.080;2024-03-02T09:54:48;0.13;;;0.10;;
76121;SDS011;70471;53.200;6.080;2024-03-02T09:59:39;0.57;;;0.50;;
76121;SDS011;70471;53.200;6.080;2024-03-02T10:04:31;0.20;;;0.20;;
76121;SDS011;70471;53.200;6.080;2024-03-02T10:09:27;0.50;;;0.20;;
76121;SDS011;70471;53.200;6.080;2024-03-02T10:14:19;0.85;;;0.10;;
76121;SDS011;70471;53.200;6.080;2024-03-02T10:19:17;0.77;;;0.10;;
76121;SDS011;70471;53.200;6.080;2024-03-02T10:24:09;0.80;;;0.20;;
76121;SDS011;70471;53.200;6.080;2024-03-02T10:29:04;1.15;;;0.28;;
76121;SDS011;70471;53.200;6.080;2024-03-02T10:33:55;0.45;;;0.20;;
76121;SDS011;70471;53.200;6.080;2024-03-02T10:38:49;0.88;;;0.50;;
76121;SDS011;70471;53.200;6.080;2024-03-02T10:43:45;0.13;;;0.08;;
76121;SDS011;70471;53.200;6.080;2024-03-02T10:48:39;0.30;;;0.15;;
76121;SDS011;70471;53.200;6.080;2024-03-02T10:53:33;1.15;;;0.43;;
76121;SDS011;70471;53.200;6.080;2024-03-02T10:58:24;0.20;;;0.10;;
76121;SDS011;70471;53.200;6.080;2024-03-02T11:03:22;0.10;;;0.10;;
76121;SDS011;70471;53.200;6.080;2024-03-02T11:08:16;0.40;;;0.17;;
76121;SDS011;70471;53.200;6.080;2024-03-02T11:13:11;0.57;;;0.10;;
76121;SDS011;70471;53.200;6.080;2024-03-02T11:18:04;0.10;;;0.10;;
76121;SDS011;70471;53.200;6.080;2024-03-02T11:23:04;0.45;;;0.17;;
76121;SDS011;70471;53.200;6.080;2024-03-02T11:28:02;0.70;;;0.20;;
76121;SDS011;70471;53.200;6.080;2024-03-02T11:32:55;0.47;;;0.08;;
76121;SDS011;70471;53.200;6.080;2024-03-02T11:37:46;0.30;;;0.20;;
76121;SDS011;70471;53.200;6.080;2024-03-02T11:47:32;0.52;;;0.10;;
76121;SDS011;70471;53.200;6.080;2024-03-02T11:52:24;0.20;;;0.10;;
76121;SDS011;70471;53.200;6.080;2024-03-02T11:57:20;0.10;;;0.10;;
76121;SDS011;70471;53.200;6.080;2024-03-02T12:02:14;0.30;;;0.10;;
76121;SDS011;70471;53.200;6.080;2024-03-02T12:07:08;1.65;;;0.20;;
76121;SDS011;70471;53.200;6.080;2024-03-02T12:12:04;0.05;;;0.05;;
76121;SDS011;70471;53.200;6.080;2024-03-02T12:16:56;0.30;;;0.10;;
76121;SDS011;70471;53.200;6.080;2024-03-02T12:21:48;1.33;;;0.05;;
76121;SDS011;70471;53.200;6.080;2024-03-02T12:26:41;0.63;;;0.30;;
76121;SDS011;70471;53.200;6.080;2024-03-02T12:31:33;1.50;;;0.30;;
76121;SDS011;70471;53.200;6.080;2024-03-02T12:36:25;0.85;;;0.10;;
76121;SDS011;70471;53.200;6.080;2024-03-02T12:41:17;1.17;;;0.10;;
76121;SDS011;70471;53.200;6.080;2024-03-02T12:46:10;0.35;;;0.30;;
76121;SDS011;70471;53.200;6.080;2024-03-02T12:51:02;0.40;;;0.10;;
76121;SDS011;70471;53.200;6.080;2024-03-02T12:55:54;0.40;;;0.10;;
76121;SDS011;70471;53.200;6.080;2024-03-02T13:00:46;0.05;;;0.05;;
76121;SDS011;70471;53.200;6.080;2024-03-02T13:05:38;0.35;;;0.00;;
76121;SDS011;70471;53.200;6.080;2024-03-02T13:10:30;0.20;;;0.08;;
76121;SDS011;70471;53.200;6.080;2024-03-02T13:15:21;0.17;;;0.03;;
76121;SDS011;70471;53.200;6.080;2024-03-02T13:20:13;0.45;;;0.10;;
76121;SDS011;70471;53.200;6.080;2024-03-02T13:25:08;0.30;;;0.10;;
76121;SDS011;70471;53.200;6.080;2024-03-02T13:30:01;0.03;;;0.03;;
76121;SDS011;70471;53.200;6.080;2024-03-02T13:34:53;0.20;;;0.20;;
76121;SDS011;70471;53.200;6.080;2024-03-02T13:39:45;0.60;;;0.10;;
76121;SDS011;70471;53.200;6.080;2024-03-02T13:44:38;0.10;;;0.10;;
76121;SDS011;70471;53.200;6.080;2024-03-02T13:49:29;1.25;;;0.10;;
76121;SDS011;70471;53.200;6.080;2024-03-02T13:54:25;0.20;;;0.20;;
76121;SDS011;70471;53.200;6.080;2024-03-02T13:59:17;0.75;;;0.10;;
76121;SDS011;70471;53.200;6.080;2024-03-02T14:04:10;0.10;;;0.10;;
76121;SDS011;70471;53.200;6.080;2024-03-02T14:09:02;0.90;;;0.17;;
76121;SDS011;70471;53.200;6.080;2024-03-02T14:13:54;0.32;;;0.10;;
76121;SDS011;70471;53.200;6.080;2024-03-02T14:18:47;0.70;;;0.20;;
76121;SDS011;70471;53.200;6.080;2024-03-02T14:23:39;0.20;;;0.10;;
76121;SDS011;70471;53.200;6.080;2024-03-02T14:28:31;0.00;;;0.00;;
76121;SDS011;70471;53.200;6.080;2024-03-02T14:33:22;0.30;;;0.20;;
76121;SDS011;70471;53.200;6.080;2024-03-02T14:38:14;0.17;;;0.17;;
76121;SDS011;70471;53.200;6.080;2024-03-02T14:43:07;0.55;;;0.15;;
76121;SDS011;70471;53.200;6.080;2024-03-02T14:47:59;0.00;;;0.00;;
76121;SDS011;70471;53.200;6.080;2024-03-02T14:52:50;0.20;;;0.20;;
76121;SDS011;70471;53.200;6.080;2024-03-02T14:57:42;0.30;;;0.10;;
76121;SDS011;70471;53.200;6.080;2024-03-02T15:02:35;0.98;;;0.25;;
76121;SDS011;70471;53.200;6.080;2024-03-02T15:07:26;0.20;;;0.20;;
76121;SDS011;70471;53.200;6.080;2024-03-02T15:17:09;0.20;;;0.20;;
76121;SDS011;70471;53.200;6.080;2024-03-02T15:26:53;1.05;;;0.20;;
76121;SDS011;70471;53.200;6.080;2024-03-02T15:31:45;2.15;;;0.85;;
76121;SDS011;70471;53.200;6.080;2024-03-02T15:41:29;1.05;;;0.30;;
76121;SDS011;70471;53.200;6.080;2024-03-02T15:46:20;0.82;;;0.32;;
76121;SDS011;70471;53.200;6.080;2024-03-02T15:51:12;0.45;;;0.40;;
76121;SDS011;70471;53.200;6.080;2024-03-02T15:56:03;0.50;;;0.43;;
76121;SDS011;70471;53.200;6.080;2024-03-02T16:00:56;0.47;;;0.45;;
76121;SDS011;70471;53.200;6.080;2024-03-02T16:05:48;0.63;;;0.43;;
76121;SDS011;70471;53.200;6.080;2024-03-02T16:10:39;0.52;;;0.50;;
76121;SDS011;70471;53.200;6.080;2024-03-02T16:15:31;1.27;;;0.60;;
76121;SDS011;70471;53.200;6.080;2024-03-02T16:20:24;0.45;;;0.45;;
76121;SDS011;70471;53.200;6.080;2024-03-02T16:25:15;0.73;;;0.43;;
76121;SDS011;70471;53.200;6.080;2024-03-02T16:30:07;0.93;;;0.52;;
76121;SDS011;70471;53.200;6.080;2024-03-02T16:34:59;0.45;;;0.20;;
76121;SDS011;70471;53.200;6.080;2024-03-02T16:39:52;0.65;;;0.60;;
76121;SDS011;70471;53.200;6.080;2024-03-02T16:44:45;1.73;;;0.40;;
76121;SDS011;70471;53.200;6.080;2024-03-02T16:49:38;0.82;;;0.50;;
76121;SDS011;70471;53.200;6.080;2024-03-02T16:54:29;0.70;;;0.50;;
76121;SDS011;70471;53.200;6.080;2024-03-02T16:59:22;0.93;;;0.32;;
76121;SDS011;70471;53.200;6.080;2024-03-02T17:04:14;0.38;;;0.20;;
76121;SDS011;70471;53.200;6.080;2024-03-02T17:09:05;0.50;;;0.50;;
76121;SDS011;70471;53.200;6.080;2024-03-02T17:13:57;0.22;;;0.20;;
76121;SDS011;70471;53.200;6.080;2024-03-02T17:18:50;0.63;;;0.40;;
76121;SDS011;70471;53.200;6.080;2024-03-02T17:23:42;0.50;;;0.45;;
76121;SDS011;70471;53.200;6.080;2024-03-02T17:28:33;0.50;;;0.40;;
76121;SDS011;70471;53.200;6.080;2024-03-02T17:33:25;1.08;;;0.52;;
76121;SDS011;70471;53.200;6.080;2024-03-02T17:38:18;1.08;;;0.40;;
76121;SDS011;70471;53.200;6.080;2024-03-02T17:43:09;0.82;;;0.40;;
76121;SDS011;70471;53.200;6.080;2024-03-02T17:48:01;0.40;;;0.40;;
76121;SDS011;70471;53.200;6.080;2024-03-02T17:52:53;0.60;;;0.40;;
76121;SDS011;70471;53.200;6.080;2024-03-02T17:57:46;0.90;;;0.68;;
76121;SDS011;70471;53.200;6.080;2024-03-02T18:02:39;0.90;;;0.40;;
76121;SDS011;70471;53.200;6.080;2024-03-02T18:07:30;1.30;;;0.65;;
76121;SDS011;70471;53.200;6.080;2024-03-02T18:12:22;0.50;;;0.45;;
76121;SDS011;70471;53.200;6.080;2024-03-02T18:17:15;0.70;;;0.40;;
76121;SDS011;70471;53.200;6.080;2024-03-02T18:22:06;1.05;;;0.30;;
76121;SDS011;70471;53.200;6.080;2024-03-02T18:26:58;0.50;;;0.40;;
76121;SDS011;70471;53.200;6.080;2024-03-02T18:31:50;0.38;;;0.30;;
76121;SDS011;70471;53.200;6.080;2024-03-02T18:36:43;0.50;;;0.50;;
76121;SDS011;70471;53.200;6.080;2024-03-02T18:41:34;0.70;;;0.50;;
76121;SDS011;70471;53.200;6.080;2024-03-02T18:46:26;1.95;;;0.52;;
76121;SDS011;70471;53.200;6.080;2024-03-02T18:51:20;0.75;;;0.60;;
76121;SDS011;70471;53.200;6.080;2024-03-02T18:56:14;0.65;;;0.43;;
76121;SDS011;70471;53.200;6.080;2024-03-02T19:01:05;1.20;;;0.50;;
76121;SDS011;70471;53.200;6.080;2024-03-02T19:05:58;0.40;;;0.38;;
76121;SDS011;70471;53.200;6.080;2024-03-02T19:10:51;2.15;;;0.50;;
76121;SDS011;70471;53.200;6.080;2024-03-02T19:15:44;0.90;;;0.50;;
76121;SDS011;70471;53.200;6.080;2024-03-02T19:20:36;1.52;;;0.50;;
76121;SDS011;70471;53.200;6.080;2024-03-02T19:25:27;0.77;;;0.57;;
76121;SDS011;70471;53.200;6.080;2024-03-02T19:30:19;0.50;;;0.47;;
76121;SDS011;70471;53.200;6.080;2024-03-02T19:35:12;0.65;;;0.50;;
76121;SDS011;70471;53.200;6.080;2024-03-02T19:40:03;0.85;;;0.55;;
76121;SDS011;70471;53.200;6.080;2024-03-02T19:44:56;0.80;;;0.50;;
76121;SDS011;70471;53.200;6.080;2024-03-02T19:49:47;1.23;;;0.52;;
76121;SDS011;70471;53.200;6.080;2024-03-02T19:54:40;1.35;;;0.60;;
76121;SDS011;70471;53.200;6.080;2024-03-02T19:59:32;1.00;;;0.77;;
76121;SDS011;70471;53.200;6.080;2024-03-02T20:04:23;0.80;;;0.55;;
76121;SDS011;70471;53.200;6.080;2024-03-02T20:09:15;1.30;;;0.50;;
76121;SDS011;70471;53.200;6.080;2024-03-02T20:14:10;1.45;;;0.85;;
76121;SDS011;70471;53.200;6.080;2024-03-02T20:19:02;0.88;;;0.60;;
76121;SDS011;70471;53.200;6.080;2024-03-02T20:23:54;0.38;;;0.38;;
76121;SDS011;70471;53.200;6.080;2024-03-02T20:28:47;0.32;;;0.30;;
76121;SDS011;70471;53.200;6.080;2024-03-02T20:33:43;0.63;;;0.60;;
76121;SDS011;70471;53.200;6.080;2024-03-02T20:38:38;1.63;;;0.70;;
76121;SDS011;70471;53.200;6.080;2024-03-02T20:43:31;0.90;;;0.50;;
76121;SDS011;70471;53.200;6.080;2024-03-02T20:48:23;1.10;;;0.57;;
76121;SDS011;70471;53.200;6.080;2024-03-02T20:53:22;0.70;;;0.50;;
76121;SDS011;70471;53.200;6.080;2024-03-02T20:58:14;1.15;;;0.68;;
76121;SDS011;70471;53.200;6.080;2024-03-02T21:03:06;0.77;;;0.45;;
76121;SDS011;70471;53.200;6.080;2024-03-02T21:07:59;0.82;;;0.50;;
76121;SDS011;70471;53.200;6.080;2024-03-02T21:12:52;1.30;;;0.98;;
76121;SDS011;70471;53.200;6.080;2024-03-02T21:17:44;1.55;;;0.68;;
76121;SDS011;70471;53.200;6.080;2024-03-02T21:22:36;0.57;;;0.40;;
76121;SDS011;70471;53.200;6.080;2024-03-02T21:27:31;1.13;;;0.80;;
76121;SDS011;70471;53.200;6.080;2024-03-02T21:32:24;1.10;;;0.75;;
76121;SDS011;70471;53.200;6.080;2024-03-02T21:37:17;1.65;;;0.50;;
76121;SDS011;70471;53.200;6.080;2024-03-02T21:42:09;0.90;;;0.65;;
76121;SDS011;70471;53.200;6.080;2024-03-02T21:47:01;1.27;;;0.65;;
76121;SDS011;70471;53.200;6.080;2024-03-02T21:51:56;1.00;;;0.75;;
76121;SDS011;70471;53.200;6.080;2024-03-02T21:56:47;2.15;;;0.52;;
76121;SDS011;70471;53.200;6.080;2024-03-02T22:01:40;1.42;;;0.68;;
76121;SDS011;70471;53.200;6.080;2024-03-02T22:06:32;3.15;;;0.60;;
76121;SDS011;70471;53.200;6.080;2024-03-02T22:11:29;4.22;;;0.70;;
76121;SDS011;70471;53.200;6.080;2024-03-02T22:16:21;0.50;;;0.50;;
76121;SDS011;70471;53.200;6.080;2024-03-02T22:21:16;1.25;;;0.50;;
76121;SDS011;70471;53.200;6.080;2024-03-02T22:26:08;0.90;;;0.57;;
76121;SDS011;70471;53.200;6.080;2024-03-02T22:31:02;0.80;;;0.60;;
76121;SDS011;70471;53.200;6.080;2024-03-02T22:35:55;1.05;;;0.65;;
76121;SDS011;70471;53.200;6.080;2024-03-02T22:40:48;0.82;;;0.70;;
76121;SDS011;70471;53.200;6.080;2024-03-02T22:45:40;1.55;;;0.90;;
76121;SDS011;70471;53.200;6.080;2024-03-02T22:50:34;0.80;;;0.75;;
76121;SDS011;70471;53.200;6.080;2024-03-02T22:55:26;1.17;;;0.75;;
76121;SDS011;70471;53.200;6.080;2024-03-02T23:00:19;1.27;;;0.73;;
76121;SDS011;70471;53.200;6.080;2024-03-02T23:05:25;0.63;;;0.50;;
76121;SDS011;70471;53.200;6.080;2024-03-02T23:10:19;0.70;;;0.50;;
76121;SDS011;70471;53.200;6.080;2024-03-02T23:15:11;0.98;;;0.50;;
76121;SDS011;70471;53.200;6.080;2024-03-02T23:20:04;1.65;;;0.73;;
76121;SDS011;70471;53.200;6.080;2024-03-02T23:24:58;0.60;;;0.60;;
76121;SDS011;70471;53.200;6.080;2024-03-02T23:29:52;0.68;;;0.60;;
76121;SDS011;70471;53.200;6.080;2024-03-02T23:34:45;0.50;;;0.45;;
76121;SDS011;70471;53.200;6.080;2024-03-02T23:39:37;0.55;;;0.52;;
76121;SDS011;70471;53.200;6.080;2024-03-02T23:44:47;1.00;;;0.77;;
76121;SDS011;70471;53.200;6.080;2024-03-02T23:49:41;0.60;;;0.60;;
76121;SDS011;70471;53.200;6.080;2024-03-02T23:54:33;0.73;;;0.60;;
76121;SDS011;70471;53.200;6.080;2024-03-02T23:59:26;0.82;;;0.50;;
